createdAt,value
2019-06-10T00:00:59.291Z,4.00
2019-06-10T00:01:58.083Z,4.00
2019-06-10T00:02:58.175Z,4.00
2019-06-10T00:03:59.834Z,4.00
2019-06-10T00:04:59.627Z,4.00
2019-06-10T00:06:00.867Z,4.00
2019-06-10T00:07:00.987Z,4.00
2019-06-10T00:08:01.153Z,0.00
2019-06-10T00:09:01.594Z,4.00
2019-06-10T00:10:00.831Z,4.00
2019-06-10T00:10:58.935Z,0.00
2019-06-10T00:12:01.527Z,4.00
2019-06-10T00:13:02.093Z,4.00
2019-06-10T00:14:01.171Z,4.00
2019-06-10T00:15:01.319Z,4.00
2019-06-10T00:16:02.727Z,4.00
2019-06-10T00:17:01.516Z,4.00
2019-06-10T00:18:19.008Z,4.00
2019-06-10T00:19:02.793Z,4.00
2019-06-10T00:20:01.931Z,4.00
2019-06-10T00:21:03.271Z,0.00
2019-06-10T00:22:02.494Z,4.00
2019-06-10T00:23:02.111Z,4.00
2019-06-10T00:24:02.597Z,4.00
2019-06-10T00:25:03.560Z,4.00
2019-06-10T00:26:03.234Z,0.00
2019-06-10T00:27:02.842Z,0.00
2019-06-10T00:28:02.581Z,0.00
2019-06-10T00:29:02.731Z,0.00
2019-06-10T00:30:04.328Z,0.00
2019-06-10T00:31:02.400Z,4.00
2019-06-10T00:32:03.264Z,4.00
2019-06-10T00:33:03.145Z,4.00
2019-06-10T00:34:03.073Z,4.00
2019-06-10T00:35:03.167Z,4.00
2019-06-10T00:36:05.111Z,4.00
2019-06-10T00:37:02.637Z,4.00
2019-06-10T00:38:05.275Z,4.00
2019-06-10T00:39:03.531Z,4.00
2019-06-10T00:40:03.573Z,0.00
2019-06-10T00:41:03.880Z,0.00
2019-06-10T00:42:03.192Z,4.00
2019-06-10T00:43:03.796Z,4.00
2019-06-10T00:44:03.795Z,4.00
2019-06-10T00:45:05.344Z,4.00
2019-06-10T00:46:04.149Z,4.00
2019-06-10T00:47:04.797Z,4.00
2019-06-10T00:48:13.616Z,4.00
2019-06-10T00:49:04.601Z,4.00
2019-06-10T00:50:03.966Z,0.00
2019-06-10T00:51:04.201Z,4.00
2019-06-10T00:52:04.283Z,4.00
2019-06-10T00:53:04.485Z,4.00
2019-06-10T00:54:04.939Z,4.00
2019-06-10T00:55:04.567Z,0.00
2019-06-10T00:56:05.129Z,0.00
2019-06-10T00:57:04.388Z,4.00
2019-06-10T00:58:04.121Z,0.00
2019-06-10T00:59:04.111Z,0.00
2019-06-10T01:00:14.582Z,4.00
2019-06-10T01:01:04.265Z,4.00
2019-06-10T01:02:05.046Z,4.00
2019-06-10T01:03:03.988Z,4.00
2019-06-10T01:04:05.479Z,4.00
2019-06-10T01:05:05.070Z,0.00
2019-06-10T01:06:04.705Z,0.00
2019-06-10T01:07:04.409Z,4.00
2019-06-10T01:08:04.627Z,4.00
2019-06-10T01:09:04.548Z,0.00
2019-06-10T01:10:04.753Z,0.00
2019-06-10T01:11:10.313Z,0.00
2019-06-10T01:12:04.863Z,0.00
2019-06-10T01:13:05.117Z,4.00
2019-06-10T01:14:05.234Z,0.00
2019-06-10T01:15:05.266Z,4.00
2019-06-10T01:16:05.419Z,0.00
2019-06-10T01:17:05.486Z,4.00
2019-06-10T01:18:05.553Z,4.00
2019-06-10T01:19:05.772Z,4.00
2019-06-10T01:20:05.848Z,4.00
2019-06-10T01:21:05.829Z,4.00
2019-06-10T01:22:06.029Z,0.00
2019-06-10T01:23:06.958Z,4.00
2019-06-10T01:24:06.983Z,4.00
2019-06-10T01:25:07.202Z,4.00
2019-06-10T01:26:07.534Z,4.00
2019-06-10T01:27:07.458Z,0.00
2019-06-10T01:28:06.299Z,4.00
2019-06-10T01:29:07.627Z,4.00
2019-06-10T01:30:12.449Z,0.00
2019-06-10T01:31:10.919Z,4.00
2019-06-10T01:32:07.148Z,4.00
2019-06-10T01:33:06.769Z,4.00
2019-06-10T01:34:07.380Z,4.00
2019-06-10T01:35:06.961Z,0.00
2019-06-10T01:36:07.670Z,4.00
2019-06-10T01:37:07.159Z,4.00
2019-06-10T01:38:07.838Z,0.00
2019-06-10T01:39:07.341Z,4.00
2019-06-10T01:40:07.966Z,0.00
2019-06-10T01:41:08.189Z,0.00
2019-06-10T01:42:08.239Z,4.00
2019-06-10T01:43:08.294Z,4.00
2019-06-10T01:44:08.469Z,4.00
2019-06-10T01:45:09.110Z,0.00
2019-06-10T01:46:08.735Z,0.00
2019-06-10T01:47:08.721Z,0.00
2019-06-10T01:48:08.811Z,4.00
2019-06-10T01:49:09.537Z,0.00
2019-06-10T01:50:09.566Z,4.00
2019-06-10T01:51:09.052Z,4.00
2019-06-10T01:52:09.352Z,0.00
2019-06-10T01:53:10.102Z,4.00
2019-06-10T01:54:10.016Z,0.00
2019-06-10T01:55:11.860Z,4.00
2019-06-10T01:56:10.375Z,0.00
2019-06-10T01:57:11.930Z,4.00
2019-06-10T01:58:10.675Z,0.00
2019-06-10T01:59:12.162Z,0.00
2019-06-10T02:00:13.412Z,4.00
2019-06-10T02:01:13.451Z,0.00
2019-06-10T02:02:12.230Z,4.00
2019-06-10T02:03:13.282Z,4.00
2019-06-10T02:04:13.083Z,4.00
2019-06-10T02:05:12.966Z,4.00
2019-06-10T02:06:15.685Z,4.00
2019-06-10T02:07:12.085Z,4.00
2019-06-10T02:08:11.743Z,4.00
2019-06-10T02:09:13.478Z,4.00
2019-06-10T02:10:12.433Z,4.00
2019-06-10T02:11:14.036Z,4.00
2019-06-10T02:12:12.813Z,4.00
2019-06-10T02:13:12.097Z,4.00
2019-06-10T02:14:14.727Z,4.00
2019-06-10T02:15:13.480Z,4.00
2019-06-10T02:16:14.179Z,4.00
2019-06-10T02:17:13.070Z,4.00
2019-06-10T02:18:13.509Z,4.00
2019-06-10T02:19:13.970Z,4.00
2019-06-10T02:20:13.920Z,4.00
2019-06-10T02:21:14.534Z,4.00
2019-06-10T02:22:13.629Z,4.00
2019-06-10T02:23:14.122Z,4.00
2019-06-10T02:24:14.309Z,4.00
2019-06-10T02:25:12.553Z,4.00
2019-06-10T02:26:14.855Z,4.00
2019-06-10T02:27:14.264Z,4.00
2019-06-10T02:28:14.581Z,4.00
2019-06-10T02:29:14.022Z,4.00
2019-06-10T02:30:20.576Z,4.00
2019-06-10T02:31:15.187Z,4.00
2019-06-10T02:32:17.494Z,4.00
2019-06-10T02:33:16.825Z,4.00
2019-06-10T02:34:17.152Z,4.00
2019-06-10T02:35:23.076Z,4.00
2019-06-10T02:36:15.878Z,4.00
2019-06-10T02:37:17.022Z,4.00
2019-06-10T02:38:17.521Z,8.00
2019-06-10T02:39:17.345Z,4.00
2019-06-10T02:40:16.594Z,4.00
2019-06-10T02:41:17.492Z,4.00
2019-06-10T02:42:17.286Z,4.00
2019-06-10T02:43:17.816Z,4.00
2019-06-10T02:44:17.267Z,8.00
2019-06-10T02:45:17.967Z,8.00
2019-06-10T02:46:17.289Z,4.00
2019-06-10T02:47:18.255Z,4.00
2019-06-10T02:48:17.660Z,8.00
2019-06-10T02:49:30.193Z,8.00
2019-06-10T02:50:17.231Z,8.00
2019-06-10T02:51:15.848Z,12.00
2019-06-10T02:52:17.600Z,8.00
2019-06-10T02:53:15.856Z,12.00
2019-06-10T02:54:18.088Z,12.00
2019-06-10T02:55:16.272Z,8.00
2019-06-10T02:56:17.178Z,12.00
2019-06-10T02:57:18.065Z,12.00
2019-06-10T02:58:15.713Z,8.00
2019-06-10T02:59:16.317Z,12.00
2019-06-10T03:00:24.722Z,12.00
2019-06-10T03:01:16.999Z,12.00
2019-06-10T03:02:30.071Z,12.00
2019-06-10T03:03:22.875Z,16.00
2019-06-10T03:04:16.364Z,20.00
2019-06-10T03:05:17.561Z,20.00
2019-06-10T03:06:17.939Z,20.00
2019-06-10T03:07:15.907Z,24.00
2019-06-10T03:08:16.217Z,24.00
2019-06-10T03:09:16.631Z,24.00
2019-06-10T03:10:16.576Z,24.00
2019-06-10T03:11:16.554Z,24.00
2019-06-10T03:12:16.311Z,28.00
2019-06-10T03:13:17.577Z,28.00
2019-06-10T03:14:17.671Z,32.00
2019-06-10T03:15:17.784Z,36.00
2019-06-10T03:16:17.734Z,36.00
2019-06-10T03:17:17.774Z,40.00
2019-06-10T03:18:17.811Z,40.00
2019-06-10T03:19:33.275Z,40.00
2019-06-10T03:20:17.892Z,44.00
2019-06-10T03:21:17.951Z,44.00
2019-06-10T03:22:17.983Z,44.00
2019-06-10T03:23:17.981Z,48.00
2019-06-10T03:24:17.443Z,48.00
2019-06-10T03:25:18.326Z,48.00
2019-06-10T03:26:17.633Z,48.00
2019-06-10T03:27:18.362Z,52.00
2019-06-10T03:28:17.824Z,56.00
2019-06-10T03:29:18.562Z,56.00
2019-06-10T03:30:28.666Z,60.00
2019-06-10T03:31:18.794Z,64.00
2019-06-10T03:32:20.110Z,72.00
2019-06-10T03:33:20.175Z,80.00
2019-06-10T03:34:21.883Z,88.00
2019-06-10T03:35:19.249Z,96.00
2019-06-10T03:36:18.585Z,104.00
2019-06-10T03:37:18.681Z,108.00
2019-06-10T03:38:18.777Z,108.00
2019-06-10T03:39:18.873Z,112.00
2019-06-10T03:40:18.968Z,116.00
2019-06-10T03:41:19.062Z,120.00
2019-06-10T03:42:19.157Z,128.00
2019-06-10T03:43:19.252Z,128.00
2019-06-10T03:44:19.347Z,132.00
2019-06-10T03:45:19.445Z,136.00
2019-06-10T03:46:19.556Z,148.00
2019-06-10T03:47:19.634Z,168.00
2019-06-10T03:48:19.727Z,192.00
2019-06-10T03:49:19.823Z,220.00
2019-06-10T03:50:21.886Z,256.00
2019-06-10T03:51:21.180Z,288.00
2019-06-10T03:52:22.475Z,312.00
2019-06-10T03:53:21.910Z,336.00
2019-06-10T03:54:24.370Z,360.00
2019-06-10T03:55:22.967Z,368.00
2019-06-10T03:56:23.274Z,372.00
2019-06-10T03:57:23.759Z,388.00
2019-06-10T03:58:22.050Z,412.00
2019-06-10T03:59:23.971Z,436.00
2019-06-10T04:00:22.054Z,468.00
2019-06-10T04:01:24.335Z,484.00
2019-06-10T04:02:23.609Z,492.00
2019-06-10T04:03:24.262Z,508.00
2019-06-10T04:04:23.437Z,500.00
2019-06-10T04:05:23.915Z,496.00
2019-06-10T04:06:22.189Z,504.00
2019-06-10T04:07:27.340Z,524.00
2019-06-10T04:08:23.302Z,544.00
2019-06-10T04:09:23.921Z,564.00
2019-06-10T04:10:24.402Z,576.00
2019-06-10T04:11:24.084Z,604.00
2019-06-10T04:12:24.264Z,636.00
2019-06-10T04:13:24.224Z,676.00
2019-06-10T04:14:23.905Z,732.00
2019-06-10T04:15:24.870Z,784.00
2019-06-10T04:16:24.209Z,844.00
2019-06-10T04:17:24.098Z,924.00
2019-06-10T04:18:25.985Z,1000.00
2019-06-10T04:19:24.270Z,1076.00
2019-06-10T04:20:25.052Z,1156.00
2019-06-10T04:21:25.391Z,1196.00
2019-06-10T04:22:25.195Z,1248.00
2019-06-10T04:23:25.245Z,1240.00
2019-06-10T04:24:25.086Z,1148.00
2019-06-10T04:25:25.283Z,1056.00
2019-06-10T04:26:25.245Z,1020.00
2019-06-10T04:27:25.266Z,1012.00
2019-06-10T04:28:25.816Z,1040.00
2019-06-10T04:29:25.798Z,1140.00
2019-06-10T04:30:26.102Z,1312.00
2019-06-10T04:31:25.457Z,1644.00
2019-06-10T04:32:25.746Z,1944.00
2019-06-10T04:33:25.795Z,2016.00
2019-06-10T04:34:27.281Z,2008.00
2019-06-10T04:35:26.101Z,1980.00
2019-06-10T04:36:26.028Z,2016.00
2019-06-10T04:37:26.177Z,2088.00
2019-06-10T04:38:25.988Z,2156.00
2019-06-10T04:39:26.407Z,2344.00
2019-06-10T04:40:26.023Z,2512.00
2019-06-10T04:41:26.493Z,2592.00
2019-06-10T04:42:26.096Z,2664.00
2019-06-10T04:43:26.342Z,2764.00
2019-06-10T04:44:26.380Z,2836.00
2019-06-10T04:45:26.523Z,2872.00
2019-06-10T04:46:26.526Z,2936.00
2019-06-10T04:47:26.789Z,2800.00
2019-06-10T04:48:26.552Z,2608.00
2019-06-10T04:49:27.085Z,2456.00
2019-06-10T04:50:36.360Z,2336.00
2019-06-10T04:51:26.877Z,2388.00
2019-06-10T04:52:26.708Z,2464.00
2019-06-10T04:53:26.746Z,2476.00
2019-06-10T04:54:27.011Z,2500.00
2019-06-10T04:55:26.556Z,2528.00
2019-06-10T04:56:27.848Z,2424.00
2019-06-10T04:57:26.913Z,2356.00
2019-06-10T04:58:27.594Z,2328.00
2019-06-10T04:59:28.746Z,2256.00
2019-06-10T05:00:27.658Z,2376.00
2019-06-10T05:01:28.305Z,2480.00
2019-06-10T05:02:28.454Z,2572.00
2019-06-10T05:03:28.044Z,2680.00
2019-06-10T05:04:28.442Z,3048.00
2019-06-10T05:05:28.474Z,3336.00
2019-06-10T05:06:28.371Z,3576.00
2019-06-10T05:07:32.025Z,3632.00
2019-06-10T05:08:28.490Z,3432.00
2019-06-10T05:09:29.054Z,3412.00
2019-06-10T05:10:28.350Z,3180.00
2019-06-10T05:11:28.947Z,2904.00
2019-06-10T05:12:28.012Z,2712.00
2019-06-10T05:13:28.382Z,2620.00
2019-06-10T05:14:29.120Z,2928.00
2019-06-10T05:15:29.870Z,3188.00
2019-06-10T05:16:30.872Z,3520.00
2019-06-10T05:17:30.632Z,3740.00
2019-06-10T05:18:29.080Z,3736.00
2019-06-10T05:19:29.498Z,3684.00
2019-06-10T05:20:46.783Z,3656.00
2019-06-10T05:21:29.770Z,3448.00
2019-06-10T05:22:29.949Z,3264.00
2019-06-10T05:23:29.930Z,2972.00
2019-06-10T05:24:30.105Z,2672.00
2019-06-10T05:25:30.171Z,2476.00
2019-06-10T05:26:30.483Z,2468.00
2019-06-10T05:27:30.821Z,2540.00
2019-06-10T05:28:30.298Z,2488.00
2019-06-10T05:29:29.931Z,2580.00
2019-06-10T05:30:30.862Z,2492.00
2019-06-10T05:31:31.027Z,2604.00
2019-06-10T05:32:31.154Z,2796.00
2019-06-10T05:33:30.601Z,2804.00
2019-06-10T05:34:30.857Z,2936.00
2019-06-10T05:35:31.144Z,3004.00
2019-06-10T05:36:33.869Z,3116.00
2019-06-10T05:37:31.620Z,3188.00
2019-06-10T05:38:34.597Z,3512.00
2019-06-10T05:39:30.769Z,4140.00
2019-06-10T05:40:33.794Z,4492.00
2019-06-10T05:41:34.794Z,5128.00
2019-06-10T05:42:33.541Z,5044.00
2019-06-10T05:43:34.251Z,4592.00
2019-06-10T05:44:34.182Z,4380.00
2019-06-10T05:45:32.718Z,6760.00
2019-06-10T05:46:34.693Z,5420.00
2019-06-10T05:47:34.247Z,5044.00
2019-06-10T05:48:33.667Z,5328.00
2019-06-10T05:49:34.179Z,5336.00
2019-06-10T05:50:33.564Z,5668.00
2019-06-10T05:51:35.086Z,8148.00
2019-06-10T05:52:33.846Z,4700.00
2019-06-10T05:53:34.989Z,4460.00
2019-06-10T05:54:34.039Z,4632.00
2019-06-10T05:55:33.729Z,10232.00
2019-06-10T05:56:35.160Z,43136.00
2019-06-10T05:57:34.154Z,45088.00
2019-06-10T05:58:34.495Z,44736.00
2019-06-10T05:59:35.465Z,44480.00
2019-06-10T06:00:34.968Z,43744.00
2019-06-10T06:01:37.958Z,42784.00
2019-06-10T06:02:35.071Z,41952.00
2019-06-10T06:03:35.268Z,41120.00
2019-06-10T06:04:34.688Z,42720.00
2019-06-10T06:05:34.846Z,43360.00
2019-06-10T06:06:35.175Z,44192.00
2019-06-10T06:07:35.238Z,44864.00
2019-06-10T06:08:35.331Z,43744.00
2019-06-10T06:09:35.249Z,41504.00
2019-06-10T06:10:35.509Z,38720.00
2019-06-10T06:11:35.253Z,35904.00
2019-06-10T06:12:35.582Z,35104.00
2019-06-10T06:13:35.934Z,29280.00
2019-06-10T06:14:35.931Z,11636.00
2019-06-10T06:15:35.813Z,4700.00
2019-06-10T06:16:36.060Z,4644.00
2019-06-10T06:17:35.376Z,4624.00
2019-06-10T06:18:36.435Z,4620.00
2019-06-10T06:19:37.289Z,4648.00
2019-06-10T06:20:35.994Z,4636.00
2019-06-10T06:21:40.267Z,4648.00
2019-06-10T06:22:35.686Z,4648.00
2019-06-10T06:23:36.671Z,4656.00
2019-06-10T06:24:35.699Z,4656.00
2019-06-10T06:25:39.776Z,4680.00
2019-06-10T06:26:38.050Z,4696.00
2019-06-10T06:27:36.690Z,4724.00
2019-06-10T06:28:36.135Z,4760.00
2019-06-10T06:29:37.043Z,4884.00
2019-06-10T06:30:36.431Z,4996.00
2019-06-10T06:31:36.497Z,5180.00
2019-06-10T06:32:36.957Z,5464.00
2019-06-10T06:33:38.500Z,4812.00
2019-06-10T06:34:38.694Z,4924.00
2019-06-10T06:35:42.703Z,5312.00
2019-06-10T06:36:37.024Z,6628.00
2019-06-10T06:37:38.142Z,6792.00
2019-06-10T06:38:37.177Z,8360.00
2019-06-10T06:39:37.066Z,7244.00
2019-06-10T06:40:37.585Z,7908.00
2019-06-10T06:41:37.590Z,8264.00
2019-06-10T06:42:38.216Z,9672.00
2019-06-10T06:43:41.559Z,9188.00
2019-06-10T06:44:38.122Z,7796.00
2019-06-10T06:45:37.753Z,7476.00
2019-06-10T06:46:39.507Z,7436.00
2019-06-10T06:47:38.717Z,7600.00
2019-06-10T06:48:40.000Z,8368.00
2019-06-10T06:49:38.634Z,8592.00
2019-06-10T06:50:57.294Z,9980.00
2019-06-10T06:51:49.462Z,10356.00
2019-06-10T06:53:09.233Z,10156.00
2019-06-10T06:53:45.385Z,8436.00
2019-06-10T06:54:39.355Z,8200.00
2019-06-10T06:55:38.459Z,8448.00
2019-06-10T06:56:39.281Z,9152.00
2019-06-10T06:57:39.782Z,8520.00
2019-06-10T06:58:38.904Z,8376.00
2019-06-10T06:59:39.114Z,8296.00
2019-06-10T07:00:59.335Z,8384.00
2019-06-10T07:01:39.583Z,8512.00
2019-06-10T07:02:40.277Z,9988.00
2019-06-10T07:03:40.898Z,9424.00
2019-06-10T07:04:40.226Z,8652.00
2019-06-10T07:05:40.377Z,7704.00
2019-06-10T07:06:40.277Z,6304.00
2019-06-10T07:07:40.429Z,5564.00
2019-06-10T07:08:40.761Z,5984.00
2019-06-10T07:09:41.172Z,6336.00
2019-06-10T07:10:40.794Z,5868.00
2019-06-10T07:11:41.130Z,5656.00
2019-06-10T07:12:41.057Z,5888.00
2019-06-10T07:13:43.409Z,5792.00
2019-06-10T07:14:40.850Z,4952.00
2019-06-10T07:15:42.162Z,4820.00
2019-06-10T07:16:44.234Z,4616.00
2019-06-10T07:17:41.605Z,6024.00
2019-06-10T07:18:46.585Z,5168.00
2019-06-10T07:19:42.081Z,6532.00
2019-06-10T07:20:41.626Z,5412.00
2019-06-10T07:22:02.269Z,6740.00
2019-06-10T07:22:42.766Z,6412.00
2019-06-10T07:23:45.201Z,8356.00
2019-06-10T07:24:46.810Z,7316.00
2019-06-10T07:25:45.497Z,6656.00
2019-06-10T07:26:49.419Z,6396.00
2019-06-10T07:27:45.175Z,7316.00
2019-06-10T07:28:45.697Z,6256.00
2019-06-10T07:29:46.949Z,6452.00
2019-06-10T07:30:47.261Z,7136.00
2019-06-10T07:31:44.173Z,7248.00
2019-06-10T07:32:46.835Z,6728.00
2019-06-10T07:33:45.818Z,6672.00
2019-06-10T07:34:44.970Z,6776.00
2019-06-10T07:35:44.125Z,6736.00
2019-06-10T07:36:44.056Z,6500.00
2019-06-10T07:37:44.509Z,6464.00
2019-06-10T07:38:48.196Z,6124.00
2019-06-10T07:39:45.167Z,5932.00
2019-06-10T07:40:45.583Z,5760.00
2019-06-10T07:41:47.443Z,5848.00
2019-06-10T07:42:44.111Z,6060.00
2019-06-10T07:43:49.315Z,5700.00
2019-06-10T07:44:44.016Z,5412.00
2019-06-10T07:45:47.597Z,5548.00
2019-06-10T07:46:45.186Z,5528.00
2019-06-10T07:47:45.187Z,5308.00
2019-06-10T07:48:47.863Z,5092.00
2019-06-10T07:49:44.365Z,4792.00
2019-06-10T07:50:45.597Z,4504.00
2019-06-10T07:51:46.127Z,4296.00
2019-06-10T07:52:46.587Z,3808.00
2019-06-10T07:53:46.553Z,3276.00
2019-06-10T07:54:45.254Z,3032.00
2019-06-10T07:55:46.426Z,3032.00
2019-06-10T07:56:50.219Z,3104.00
2019-06-10T07:57:45.554Z,3160.00
2019-06-10T07:58:47.409Z,3160.00
2019-06-10T07:59:45.785Z,3212.00
2019-06-10T08:00:48.072Z,3384.00
2019-06-10T08:01:50.868Z,3740.00
2019-06-10T08:02:46.156Z,4024.00
2019-06-10T08:03:46.598Z,4220.00
2019-06-10T08:04:46.077Z,4416.00
2019-06-10T08:05:46.538Z,4868.00
2019-06-10T08:06:45.869Z,5244.00
2019-06-10T08:07:48.534Z,5940.00
2019-06-10T08:08:45.522Z,6228.00
2019-06-10T08:09:45.864Z,7756.00
2019-06-10T08:10:46.317Z,9236.00
2019-06-10T08:11:47.359Z,10136.00
2019-06-10T08:12:46.934Z,11984.00
2019-06-10T08:13:46.469Z,9720.00
2019-06-10T08:14:46.059Z,10100.00
2019-06-10T08:15:46.326Z,9660.00
2019-06-10T08:16:46.777Z,9400.00
2019-06-10T08:17:46.359Z,9152.00
2019-06-10T08:19:14.007Z,9060.00
2019-06-10T08:19:50.597Z,8872.00
2019-06-10T08:20:47.626Z,8912.00
2019-06-10T08:21:49.216Z,9024.00
2019-06-10T08:22:52.510Z,8776.00
2019-06-10T08:23:48.508Z,8520.00
2019-06-10T08:24:47.855Z,8380.00
2019-06-10T08:25:53.357Z,7800.00
2019-06-10T08:26:47.778Z,7288.00
2019-06-10T08:27:49.059Z,7240.00
2019-06-10T08:28:48.307Z,7208.00
2019-06-10T08:29:49.652Z,7108.00
2019-06-10T08:30:48.268Z,6776.00
2019-06-10T08:31:49.923Z,6876.00
2019-06-10T08:32:52.190Z,6820.00
2019-06-10T08:33:49.154Z,7032.00
2019-06-10T08:34:48.254Z,6912.00
2019-06-10T08:35:56.024Z,6388.00
2019-06-10T08:36:50.544Z,6340.00
2019-06-10T08:37:48.404Z,6288.00
2019-06-10T08:38:48.831Z,6380.00
2019-06-10T08:39:48.612Z,6368.00
2019-06-10T08:40:48.714Z,6056.00
2019-06-10T08:41:49.320Z,6640.00
2019-06-10T08:42:48.970Z,7092.00
2019-06-10T08:43:49.016Z,7476.00
2019-06-10T08:44:49.136Z,7372.00
2019-06-10T08:45:49.226Z,7692.00
2019-06-10T08:46:49.317Z,7796.00
2019-06-10T08:47:49.417Z,7856.00
2019-06-10T08:48:49.665Z,7872.00
2019-06-10T08:49:49.632Z,7752.00
2019-06-10T08:50:50.201Z,7192.00
2019-06-10T08:51:50.353Z,7072.00
2019-06-10T08:53:05.741Z,6636.00
2019-06-10T08:53:50.214Z,6784.00
2019-06-10T08:54:54.042Z,6800.00
2019-06-10T08:55:50.350Z,6892.00
2019-06-10T08:56:53.418Z,6772.00
2019-06-10T08:57:51.618Z,6268.00
2019-06-10T08:58:51.601Z,6036.00
2019-06-10T08:59:53.169Z,6784.00
2019-06-10T09:00:53.288Z,7324.00
2019-06-10T09:01:56.563Z,7128.00
2019-06-10T09:02:53.771Z,6008.00
2019-06-10T09:03:53.450Z,6144.00
2019-06-10T09:04:53.626Z,7504.00
2019-06-10T09:05:53.878Z,8708.00
2019-06-10T09:06:53.661Z,8776.00
2019-06-10T09:07:54.331Z,8324.00
2019-06-10T09:08:54.465Z,7972.00
2019-06-10T09:09:54.015Z,7752.00
2019-06-10T09:10:54.804Z,7492.00
2019-06-10T09:11:54.592Z,6996.00
2019-06-10T09:12:54.547Z,7032.00
2019-06-10T09:13:53.267Z,6996.00
2019-06-10T09:14:53.187Z,7256.00
2019-06-10T09:16:10.484Z,7232.00
2019-06-10T09:16:54.324Z,7340.00
2019-06-10T09:17:56.121Z,6944.00
2019-06-10T09:18:55.217Z,6608.00
2019-06-10T09:19:54.241Z,6328.00
2019-06-10T09:20:55.839Z,6100.00
2019-06-10T09:21:56.176Z,5912.00
2019-06-10T09:23:13.855Z,4612.00
2019-06-10T09:23:59.742Z,6200.00
2019-06-10T09:24:56.407Z,4112.00
2019-06-10T09:25:57.333Z,5504.00
2019-06-10T09:26:54.979Z,6824.00
2019-06-10T09:27:54.757Z,6680.00
2019-06-10T09:28:56.461Z,6364.00
2019-06-10T09:29:55.508Z,6272.00
2019-06-10T09:30:58.934Z,6200.00
2019-06-10T09:31:55.786Z,6496.00
2019-06-10T09:32:56.869Z,6596.00
2019-06-10T09:33:56.788Z,6496.00
2019-06-10T09:34:57.364Z,6380.00
2019-06-10T09:35:55.064Z,6012.00
2019-06-10T09:36:56.855Z,5976.00
2019-06-10T09:37:55.614Z,6104.00
2019-06-10T09:38:55.732Z,5964.00
2019-06-10T09:39:59.413Z,5560.00
2019-06-10T09:41:01.307Z,5880.00
2019-06-10T09:42:01.517Z,5824.00
2019-06-10T09:42:55.238Z,5796.00
2019-06-10T09:43:57.040Z,5752.00
2019-06-10T09:44:55.756Z,5736.00
2019-06-10T09:45:56.516Z,5812.00
2019-06-10T09:46:56.067Z,5744.00
2019-06-10T09:47:59.956Z,5788.00
2019-06-10T09:48:56.153Z,5828.00
2019-06-10T09:49:55.932Z,5940.00
2019-06-10T09:50:58.662Z,5804.00
2019-06-10T09:51:57.436Z,6148.00
2019-06-10T09:52:57.146Z,6248.00
2019-06-10T09:54:03.141Z,6632.00
2019-06-10T09:54:56.916Z,6744.00
2019-06-10T09:55:56.351Z,6580.00
2019-06-10T09:56:56.452Z,3672.00
2019-06-10T09:57:59.906Z,5264.00
2019-06-10T09:58:56.660Z,6600.00
2019-06-10T09:59:56.873Z,3768.00
2019-06-10T10:00:58.008Z,6968.00
2019-06-10T10:02:00.026Z,7368.00
2019-06-10T10:02:57.060Z,7004.00
2019-06-10T10:04:00.265Z,7012.00
2019-06-10T10:04:58.549Z,6240.00
2019-06-10T10:06:10.006Z,6636.00
2019-06-10T10:06:57.630Z,3604.00
2019-06-10T10:07:57.571Z,5256.00
2019-06-10T10:08:58.515Z,7180.00
2019-06-10T10:09:57.783Z,7144.00
2019-06-10T10:10:58.925Z,4692.00
2019-06-10T10:11:57.978Z,5148.00
2019-06-10T10:12:58.089Z,5132.00
2019-06-10T10:13:58.187Z,5076.00
2019-06-10T10:14:58.286Z,5344.00
2019-06-10T10:15:58.401Z,4600.00
2019-06-10T10:17:00.483Z,5184.00
2019-06-10T10:17:58.582Z,4636.00
2019-06-10T10:19:00.527Z,5400.00
2019-06-10T10:19:58.797Z,4468.00
2019-06-10T10:21:00.449Z,7164.00
2019-06-10T10:21:59.060Z,4824.00
2019-06-10T10:22:59.097Z,5448.00
2019-06-10T10:24:06.942Z,6908.00
2019-06-10T10:24:59.295Z,7984.00
2019-06-10T10:25:59.398Z,7608.00
2019-06-10T10:27:01.869Z,5968.00
2019-06-10T10:27:59.615Z,6832.00
2019-06-10T10:29:02.643Z,5960.00
2019-06-10T10:29:59.817Z,6068.00
2019-06-10T10:30:59.919Z,5832.00
2019-06-10T10:32:02.448Z,5752.00
2019-06-10T10:33:02.651Z,8552.00
2019-06-10T10:34:02.568Z,8520.00
2019-06-10T10:35:03.057Z,5704.00
2019-06-10T10:36:02.593Z,5832.00
2019-06-10T10:37:02.740Z,6304.00
2019-06-10T10:38:03.710Z,7664.00
2019-06-10T10:39:02.445Z,7232.00
2019-06-10T10:40:03.220Z,8708.00
2019-06-10T10:41:04.212Z,8192.00
2019-06-10T10:42:03.141Z,9036.00
2019-06-10T10:43:19.831Z,8928.00
2019-06-10T10:44:03.163Z,8200.00
2019-06-10T10:45:02.724Z,5376.00
2019-06-10T10:46:05.500Z,4800.00
2019-06-10T10:47:03.667Z,5024.00
2019-06-10T10:48:02.547Z,5120.00
2019-06-10T10:49:02.723Z,7996.00
2019-06-10T10:50:02.786Z,8384.00
2019-06-10T10:51:03.470Z,8832.00
2019-06-10T10:52:02.655Z,6500.00
2019-06-10T10:53:02.194Z,6144.00
2019-06-10T10:54:20.838Z,6236.00
2019-06-10T10:55:06.608Z,6292.00
2019-06-10T10:56:02.629Z,6780.00
2019-06-10T10:57:02.762Z,7824.00
2019-06-10T10:58:03.215Z,8592.00
2019-06-10T10:59:02.817Z,8952.00
2019-06-10T11:00:03.298Z,8904.00
2019-06-10T11:01:04.259Z,9032.00
2019-06-10T11:02:03.126Z,9304.00
2019-06-10T11:03:03.350Z,11344.00
2019-06-10T11:04:03.908Z,11612.00
2019-06-10T11:05:03.444Z,10696.00
2019-06-10T11:06:03.550Z,9284.00
2019-06-10T11:07:03.650Z,10140.00
2019-06-10T11:08:04.351Z,11052.00
2019-06-10T11:09:03.859Z,10764.00
2019-06-10T11:10:04.550Z,10612.00
2019-06-10T11:11:05.729Z,10492.00
2019-06-10T11:12:04.167Z,10632.00
2019-06-10T11:13:04.277Z,9712.00
2019-06-10T11:14:04.380Z,10152.00
2019-06-10T11:15:05.066Z,9732.00
2019-06-10T11:16:04.589Z,9364.00
2019-06-10T11:17:04.688Z,9064.00
2019-06-10T11:18:04.790Z,8260.00
2019-06-10T11:19:04.897Z,7452.00
2019-06-10T11:20:04.992Z,7068.00
2019-06-10T11:21:05.427Z,7424.00
2019-06-10T11:22:05.189Z,7856.00
2019-06-10T11:23:05.310Z,8056.00
2019-06-10T11:24:05.404Z,8020.00
2019-06-10T11:25:05.510Z,7932.00
2019-06-10T11:26:05.614Z,7792.00
2019-06-10T11:27:05.713Z,7744.00
2019-06-10T11:28:06.440Z,7468.00
2019-06-10T11:29:05.914Z,7160.00
2019-06-10T11:30:06.018Z,4816.00
2019-06-10T11:31:06.128Z,6920.00
2019-06-10T11:32:06.235Z,6700.00
2019-06-10T11:33:06.444Z,7268.00
2019-06-10T11:34:06.494Z,7016.00
2019-06-10T11:35:06.599Z,6872.00
2019-06-10T11:36:06.702Z,6628.00
2019-06-10T11:37:06.808Z,6592.00
2019-06-10T11:38:06.908Z,6728.00
2019-06-10T11:39:07.011Z,6808.00
2019-06-10T11:40:07.119Z,7028.00
2019-06-10T11:41:07.648Z,7044.00
2019-06-10T11:42:07.326Z,6688.00
2019-06-10T11:43:07.433Z,5616.00
2019-06-10T11:44:07.533Z,5952.00
2019-06-10T11:45:07.637Z,6416.00
2019-06-10T11:46:08.189Z,6616.00
2019-06-10T11:47:07.844Z,8164.00
2019-06-10T11:48:07.947Z,9124.00
2019-06-10T11:49:08.052Z,9000.00
2019-06-10T11:50:08.141Z,8800.00
2019-06-10T11:51:08.271Z,8616.00
2019-06-10T11:52:08.357Z,8384.00
2019-06-10T11:53:08.460Z,8660.00
2019-06-10T11:54:08.564Z,8920.00
2019-06-10T11:55:15.236Z,8692.00
2019-06-10T11:56:08.767Z,8264.00
2019-06-10T11:57:08.865Z,7124.00
2019-06-10T11:58:08.974Z,6968.00
2019-06-10T11:59:10.024Z,7532.00
2019-06-10T12:00:14.806Z,8996.00
2019-06-10T12:01:09.299Z,9208.00
2019-06-10T12:02:09.394Z,10188.00
2019-06-10T12:03:09.485Z,9960.00
2019-06-10T12:04:09.602Z,8468.00
2019-06-10T12:05:09.697Z,7116.00
2019-06-10T12:06:09.805Z,6872.00
2019-06-10T12:07:09.904Z,6368.00
2019-06-10T12:08:12.810Z,5836.00
2019-06-10T12:09:10.112Z,5816.00
2019-06-10T12:10:12.663Z,5612.00
2019-06-10T12:11:12.617Z,5472.00
2019-06-10T12:12:12.670Z,5088.00
2019-06-10T12:13:10.525Z,4632.00
2019-06-10T12:14:12.891Z,4424.00
2019-06-10T12:15:12.170Z,4452.00
2019-06-10T12:17:05.723Z,4896.00
2019-06-10T12:17:35.009Z,5708.00
2019-06-10T12:18:13.187Z,6768.00
2019-06-10T12:19:12.786Z,7464.00
2019-06-10T12:20:13.255Z,7848.00
2019-06-10T12:21:13.086Z,8288.00
2019-06-10T12:22:13.366Z,8788.00
2019-06-10T12:23:12.720Z,9448.00
2019-06-10T12:24:12.672Z,10872.00
2019-06-10T12:25:31.277Z,11416.00
2019-06-10T12:26:11.881Z,8660.00